CheckWX is a tool to help pilots better visualize weather data.  It is not intended as a substitute for an official pre-flight weather briefing.

23:53:45 UTC

HTDA TAF
Julius Nyerere International Airport
Dar es Salaam, Tanzania
HTDA 221100Z 2212/2318 12010KT 5000 RA BKN018 BECMG 2220/2223 00000KT 9999 SCT010

Oct-22@
12:00 UTC

Oct-22 @ 12:00 UTC

Oct-22@
20:00 UTC

Oct-22 @ 20:00 UTC

HTDA 221100Z 2212/2318 12010KT 5000 RA BKN018

Expired

Wind
  • 120° at 10 KTS
Conditions
Rain
Cloud Levels
  • Broken at 1,800' AGL

Oct-22@
20:00 UTC

Oct-22 @ 20:00 UTC

Oct-23@
18:00 UTC

Oct-23 @ 18:00 UTC

BECMG 2220/2223 00000KT 9999 SCT010

Becoming

Becoming Conditions expected by Tue, Oct 22, 2019 @ 23:00 UTC

Conditions
Rain
Cloud Levels
  • Scattered at 1,000' AGL